TimeEST,TemperatureF,Dew PointF,Humidity,Sea Level PressureIn,VisibilityMPH,Wind Direction,Wind SpeedMPH,Gust SpeedMPH,PrecipitationIn,Events,Conditions,WindDirDegrees,DateUTC
12:53 AM,63.0,52.0,67,30.14,10.0,NNW,12.7,20.7,N/A,,Overcast,330,2013-01-18 05:53:00
1:53 AM,63.0,52.0,67,30.14,10.0,NW,13.8,21.9,N/A,,Overcast,320,2013-01-18 06:53:00
2:53 AM,62.1,50.0,65,30.14,10.0,NNW,11.5,16.1,N/A,,Overcast,330,2013-01-18 07:53:00
3:53 AM,61.0,48.9,64,30.14,10.0,NNW,11.5,24.2,N/A,,Overcast,330,2013-01-18 08:53:00
4:23 AM,60.8,51.8,72,30.15,10.0,NNW,11.5,17.3,N/A,,Overcast,330,2013-01-18 09:23:00
4:53 AM,60.1,51.1,72,30.15,10.0,NNW,10.4,-,N/A,,Overcast,340,2013-01-18 09:53:00
5:53 AM,57.9,48.9,72,30.16,10.0,NNW,10.4,-,N/A,,Overcast,340,2013-01-18 10:53:00
6:53 AM,55.9,46.9,72,30.19,10.0,North,4.6,-,N/A,,Overcast,360,2013-01-18 11:53:00
7:53 AM,54.0,45.0,72,30.22,10.0,North,8.1,-,N/A,,Overcast,10,2013-01-18 12:53:00
8:53 AM,53.1,44.1,71,30.25,10.0,NE,13.8,-,N/A,,Overcast,50,2013-01-18 13:53:00
9:53 AM,50.0,39.9,68,30.29,10.0,North,11.5,19.6,N/A,,Overcast,350,2013-01-18 14:53:00
10:53 AM,51.1,39.9,66,30.29,10.0,NE,10.4,-,N/A,,Overcast,40,2013-01-18 15:53:00
11:14 AM,53.6,41.0,62,30.28,10.0,ENE,10.4,-,N/A,,Scattered Clouds,60,2013-01-18 16:14:00
11:53 AM,55.0,41.0,59,30.26,10.0,ENE,6.9,-,N/A,,Clear,60,2013-01-18 16:53:00
12:53 PM,59.0,43.0,55,30.22,10.0,East,4.6,-,N/A,,Clear,80,2013-01-18 17:53:00
1:53 PM,63.0,46.0,54,30.19,10.0,East,8.1,-,N/A,,Clear,90,2013-01-18 18:53:00
2:53 PM,66.0,48.0,52,30.18,10.0,North,6.9,-,N/A,,Clear,10,2013-01-18 19:53:00
3:53 PM,66.9,51.1,57,30.18,10.0,North,8.1,-,N/A,,Mostly Cloudy,360,2013-01-18 20:53:00
4:53 PM,66.9,53.1,61,30.18,10.0,ENE,8.1,-,N/A,,Scattered Clouds,60,2013-01-18 21:53:00
5:53 PM,64.9,53.1,65,30.19,10.0,ENE,4.6,-,N/A,,Scattered Clouds,60,2013-01-18 22:53:00
6:53 PM,64.0,54.0,70,30.19,10.0,NE,3.5,-,N/A,,Partly Cloudy,40,2013-01-18 23:53:00
7:53 PM,63.0,55.0,75,30.21,10.0,North,4.6,-,N/A,,Clear,360,2013-01-19 00:53:00
8:53 PM,62.1,55.0,78,30.21,10.0,NNE,5.8,-,N/A,,Partly Cloudy,30,2013-01-19 01:53:00
9:53 PM,62.1,55.9,80,30.22,10.0,NNE,5.8,-,N/A,,Overcast,20,2013-01-19 02:53:00
10:53 PM,63.0,57.0,81,30.21,10.0,NNE,8.1,-,N/A,,Overcast,20,2013-01-19 03:53:00
11:53 PM,62.1,57.0,84,30.19,10.0,NNE,6.9,-,N/A,,Overcast,20,2013-01-19 04:53:00